Time;durP1;ratioP1;P1;durP2;ratioP2;P2;SDS_P1;SDS_P2;PMS_P1;PMS_P2;Temp;Humidity;BMP_temperature;BMP_pressure;BME280_temperature;BME280_humidity;BME280_pressure;Samples;Min_cycle;Max_cycle;Signal;HPM_P1;HPM_P2
2022/01/07 00:00:39;;;;;;;12.20;6.93;;;-0.30;1.00;;;;;;5036840;28;21207;-79
2022/01/07 00:03:06;;;;;;;13.25;8.20;;;-0.30;1.00;;;;;;5037992;28;20226;-78
2022/01/07 00:05:35;;;;;;;10.45;7.40;;;-0.30;1.00;;;;;;5026756;28;20232;-79
2022/01/07 00:08:01;;;;;;;12.52;7.55;;;-0.20;1.00;;;;;;5019976;28;20221;-79
2022/01/07 00:10:28;;;;;;;12.30;7.40;;;-0.20;1.00;;;;;;5036816;28;20993;-77
2022/01/07 00:12:55;;;;;;;16.15;7.57;;;-0.20;1.00;;;;;;5036510;28;20228;-78
2022/01/07 00:15:22;;;;;;;11.63;7.22;;;-0.30;1.00;;;;;;5042130;28;20229;-79
2022/01/07 00:17:50;;;;;;;14.00;7.90;;;-0.20;1.00;;;;;;5040073;28;20305;-78
2022/01/07 00:20:17;;;;;;;10.93;7.22;;;-0.20;1.00;;;;;;5033409;28;20305;-78
2022/01/07 00:22:47;;;;;;;17.63;7.60;;;-0.30;1.00;;;;;;5041777;28;20697;-78
2022/01/07 00:25:14;;;;;;;15.90;7.95;;;-0.30;1.00;;;;;;5040809;28;20697;-78
2022/01/07 00:27:41;;;;;;;11.95;7.25;;;-0.30;1.00;;;;;;5047050;28;20286;-80
2022/01/07 00:30:10;;;;;;;10.70;7.05;;;-0.40;1.00;;;;;;5038242;28;20229;-77
2022/01/07 00:32:37;;;;;;;11.50;7.65;;;-0.50;1.00;;;;;;5043857;28;20232;-78
2022/01/07 00:35:06;;;;;;;10.80;7.50;;;-0.50;1.00;;;;;;5035122;28;20228;-78
2022/01/07 00:37:33;;;;;;;13.93;9.02;;;-0.50;1.00;;;;;;5035123;28;20228;-77
2022/01/07 00:40:01;;;;;;;9.35;7.60;;;-0.50;1.00;;;;;;5044338;28;20276;-78
2022/01/07 00:42:27;;;;;;;15.35;7.35;;;-0.50;1.00;;;;;;5039186;28;20250;-77
2022/01/07 00:44:54;;;;;;;19.88;10.68;;;-0.50;1.00;;;;;;5040948;28;20263;-79
2022/01/07 00:47:21;;;;;;;10.35;7.40;;;-0.50;1.00;;;;;;5035890;28;20229;-79
2022/01/07 00:49:47;;;;;;;12.18;7.25;;;-0.40;1.00;;;;;;5037581;28;20258;-79
2022/01/07 00:52:14;;;;;;;12.88;7.47;;;-0.40;1.00;;;;;;5044365;28;20233;-77
2022/01/07 00:54:41;;;;;;;12.13;7.50;;;-0.40;1.00;;;;;;5027411;28;21042;-78
2022/01/07 00:57:09;;;;;;;19.00;7.40;;;-0.30;1.00;;;;;;5039688;28;20281;-78
2022/01/07 00:59:36;;;;;;;13.65;7.75;;;-0.40;1.00;;;;;;5038790;28;20218;-79
2022/01/07 01:02:03;;;;;;;14.52;7.80;;;-0.30;1.00;;;;;;5052788;28;20274;-76
2022/01/07 01:04:29;;;;;;;14.52;8.55;;;-0.40;1.00;;;;;;5051923;28;20631;-76
2022/01/07 01:06:56;;;;;;;13.55;7.70;;;-0.30;1.00;;;;;;5040153;28;20264;-80
2022/01/07 01:09:23;;;;;;;13.65;8.25;;;-0.40;1.00;;;;;;5037746;28;20220;-77
2022/01/07 01:11:49;;;;;;;13.25;7.70;;;-0.40;1.00;;;;;;5029855;28;20708;-79
2022/01/07 01:14:17;;;;;;;11.23;6.88;;;-0.50;1.00;;;;;;5019399;28;20712;-78
2022/01/07 01:16:47;;;;;;;11.07;7.53;;;-0.60;1.00;;;;;;5049924;28;20244;-75
2022/01/07 01:19:14;;;;;;;9.80;7.45;;;-0.60;1.00;;;;;;5060481;28;20253;-76
2022/01/07 01:21:42;;;;;;;17.40;7.50;;;-0.60;1.00;;;;;;5054117;28;20332;-76
2022/01/07 01:24:09;;;;;;;14.75;8.13;;;-0.70;1.00;;;;;;5052489;28;20234;-80
2022/01/07 01:26:36;;;;;;;12.68;8.15;;;-0.70;1.00;;;;;;5033070;28;20234;-77
2022/01/07 01:29:03;;;;;;;12.65;8.02;;;-0.80;1.00;;;;;;5030596;28;20221;-78
2022/01/07 01:31:32;;;;;;;10.77;8.80;;;-0.80;1.00;;;;;;5037825;28;20222;-78
2022/01/07 01:33:59;;;;;;;16.23;8.35;;;-0.70;1.00;;;;;;5039535;28;20260;-79
2022/01/07 01:36:26;;;;;;;12.57;8.40;;;-0.80;1.00;;;;;;5037067;28;20237;-77
2022/01/07 01:38:53;;;;;;;11.35;8.50;;;-0.80;1.00;;;;;;5034196;28;20355;-78
2022/01/07 01:41:19;;;;;;;12.98;8.50;;;-0.80;1.00;;;;;;5040090;28;20225;-78
2022/01/07 01:43:48;;;;;;;16.55;8.90;;;-0.80;1.00;;;;;;5038669;28;20336;-77
2022/01/07 01:46:15;;;;;;;15.13;8.32;;;-0.90;1.00;;;;;;5034917;28;20237;-78
2022/01/07 01:48:44;;;;;;;14.98;9.27;;;-0.90;1.00;;;;;;5040403;28;20228;-77
2022/01/07 01:51:10;;;;;;;18.13;10.95;;;-0.90;1.00;;;;;;5050038;28;20240;-78
2022/01/07 01:53:37;;;;;;;16.38;8.40;;;-0.90;1.00;;;;;;5038381;28;20308;-80
2022/01/07 01:56:04;;;;;;;18.73;8.65;;;-0.90;1.00;;;;;;5037917;28;20246;-80
2022/01/07 01:58:32;;;;;;;14.98;8.32;;;-1.00;1.00;;;;;;5035323;28;20759;-78
2022/01/07 02:00:59;;;;;;;11.20;7.40;;;-0.90;1.00;;;;;;5046500;28;20807;-77
2022/01/07 02:03:26;;;;;;;14.45;7.75;;;-1.00;1.00;;;;;;5031961;28;20210;-79
2022/01/07 02:05:54;;;;;;;17.08;8.90;;;-1.00;1.00;;;;;;5037732;28;21212;-78
2022/01/07 02:08:21;;;;;;;14.60;8.30;;;-1.00;1.00;;;;;;5038070;28;20221;-79
2022/01/07 02:10:48;;;;;;;16.70;8.10;;;-0.90;1.00;;;;;;5036422;28;20214;-79
2022/01/07 02:13:16;;;;;;;14.95;8.38;;;-0.90;1.00;;;;;;5029312;28;20226;-78
2022/01/07 02:15:42;;;;;;;12.85;7.38;;;-0.90;1.00;;;;;;5040857;28;20217;-78
2022/01/07 02:18:10;;;;;;;13.70;8.50;;;-0.90;1.00;;;;;;5034490;28;20245;-78
2022/01/07 02:20:38;;;;;;;12.93;7.40;;;-0.90;1.00;;;;;;5049458;28;20221;-77
2022/01/07 02:23:04;;;;;;;10.90;7.82;;;-0.90;1.00;;;;;;5060256;28;20297;-77
2022/01/07 02:25:31;;;;;;;13.57;7.72;;;-0.90;1.00;;;;;;5062439;28;20219;-78
2022/01/07 02:27:58;;;;;;;11.57;7.97;;;-0.90;1.00;;;;;;5049237;28;20229;-80
2022/01/07 02:30:27;;;;;;;10.55;6.97;;;-0.90;1.00;;;;;;5030444;28;20225;-80
2022/01/07 02:32:54;;;;;;;13.05;8.90;;;-0.90;1.00;;;;;;5038585;28;20220;-77
2022/01/07 02:35:23;;;;;;;11.75;7.60;;;-0.90;1.00;;;;;;5037050;28;20272;-80
2022/01/07 02:37:51;;;;;;;12.70;7.75;;;-0.90;1.00;;;;;;5026780;28;20236;-79
2022/01/07 02:40:18;;;;;;;12.45;9.38;;;-0.90;1.00;;;;;;5038749;28;20214;-77
2022/01/07 02:42:45;;;;;;;14.55;9.18;;;-0.90;1.00;;;;;;5034014;28;20732;-77
2022/01/07 02:45:13;;;;;;;13.35;8.80;;;-0.90;1.00;;;;;;5038950;28;20325;-79
2022/01/07 02:47:49;;;;;;;14.70;8.70;;;-0.90;1.00;;;;;;5035235;28;20229;-78
2022/01/07 02:50:17;;;;;;;14.88;7.75;;;-0.90;1.00;;;;;;5020745;28;20221;-80
2022/01/07 02:52:44;;;;;;;16.48;8.07;;;-0.80;1.00;;;;;;5039638;28;20233;-78
2022/01/07 02:55:13;;;;;;;10.10;7.32;;;-0.80;1.00;;;;;;5037384;28;20228;-78
2022/01/07 02:57:40;;;;;;;12.13;6.65;;;-0.80;1.00;;;;;;5040864;28;21588;-79
2022/01/07 03:00:09;;;;;;;13.48;8.35;;;-0.80;1.00;;;;;;5015601;28;20230;-79
2022/01/07 03:02:35;;;;;;;13.13;7.85;;;-0.80;1.00;;;;;;5038957;28;21458;-80
2022/01/07 03:05:02;;;;;;;14.70;8.18;;;-0.70;1.00;;;;;;5029677;28;20221;-79
2022/01/07 03:07:29;;;;;;;12.88;6.95;;;-0.70;1.00;;;;;;5038290;28;20991;-78
2022/01/07 03:09:57;;;;;;;12.00;6.97;;;-0.70;1.00;;;;;;5037917;28;20214;-79
2022/01/07 03:12:25;;;;;;;18.33;8.90;;;-0.70;1.00;;;;;;5035045;28;20226;-78
2022/01/07 03:14:51;;;;;;;10.93;7.75;;;-0.70;1.00;;;;;;5042929;28;20222;-78
2022/01/07 03:17:18;;;;;;;9.98;8.77;;;-0.60;1.00;;;;;;5039382;28;20728;-77
2022/01/07 03:19:45;;;;;;;14.63;8.20;;;-0.60;1.00;;;;;;5037612;28;20316;-79
2022/01/07 03:22:11;;;;;;;11.48;8.55;;;-0.60;1.00;;;;;;5031216;28;20229;-77
2022/01/07 03:24:38;;;;;;;10.82;8.25;;;-0.70;1.00;;;;;;5036980;28;20232;-79
2022/01/07 03:27:06;;;;;;;13.55;9.15;;;-0.70;1.00;;;;;;5042773;28;20248;-77
2022/01/07 03:29:35;;;;;;;16.70;9.68;;;-0.70;1.00;;;;;;5032331;28;20232;-76
2022/01/07 03:32:01;;;;;;;10.32;7.63;;;-0.70;1.00;;;;;;5030833;28;20225;-78
2022/01/07 03:34:28;;;;;;;15.60;9.05;;;-0.70;1.00;;;;;;5037452;28;20231;-79
2022/01/07 03:36:55;;;;;;;12.63;8.88;;;-0.70;1.00;;;;;;5036507;28;20233;-76
2022/01/07 03:39:24;;;;;;;10.45;9.35;;;-0.70;1.00;;;;;;5061828;28;20257;-76
2022/01/07 03:41:50;;;;;;;14.98;9.45;;;-0.70;1.00;;;;;;5057402;28;20292;-77
2022/01/07 03:44:17;;;;;;;15.80;9.48;;;-0.70;1.00;;;;;;5041516;28;20249;-79
2022/01/07 03:46:45;;;;;;;14.55;9.73;;;-0.70;1.00;;;;;;5031615;28;20232;-77
2022/01/07 03:49:12;;;;;;;11.57;8.93;;;-0.70;1.00;;;;;;5043983;28;20344;-76
2022/01/07 03:51:39;;;;;;;13.60;9.27;;;-0.60;1.00;;;;;;5031402;28;20229;-79
2022/01/07 03:54:08;;;;;;;17.10;9.90;;;-0.60;1.00;;;;;;5037458;28;20221;-80
2022/01/07 03:56:35;;;;;;;11.68;9.13;;;-0.70;1.00;;;;;;5043484;28;20242;-78
2022/01/07 03:59:02;;;;;;;13.77;8.80;;;-0.70;1.00;;;;;;5041478;28;20218;-80
2022/01/07 04:01:29;;;;;;;14.13;9.02;;;-0.60;1.00;;;;;;5038882;28;20972;-77
2022/01/07 04:03:57;;;;;;;16.65;10.25;;;-0.60;1.00;;;;;;5037754;28;20240;-78
2022/01/07 04:06:23;;;;;;;11.23;8.50;;;-0.60;1.00;;;;;;5043864;28;20308;-78
2022/01/07 04:08:50;;;;;;;11.38;8.52;;;-0.60;1.00;;;;;;5037976;28;20942;-78
2022/01/07 04:11:17;;;;;;;14.02;9.27;;;-0.60;1.00;;;;;;5032890;28;20839;-77
2022/01/07 04:13:44;;;;;;;11.75;8.57;;;-0.60;1.00;;;;;;5043126;28;20696;-80
2022/01/07 04:16:11;;;;;;;11.27;9.93;;;-0.60;1.00;;;;;;5036484;28;20226;-76
2022/01/07 04:18:38;;;;;;;10.77;7.60;;;-0.50;1.00;;;;;;5052413;28;20222;-76
2022/01/07 04:21:06;;;;;;;13.60;8.50;;;-0.50;1.00;;;;;;5042964;28;20222;-76
2022/01/07 04:23:33;;;;;;;12.10;7.93;;;-0.50;1.00;;;;;;5043270;28;20685;-77
2022/01/07 04:26:00;;;;;;;11.48;8.00;;;-0.50;1.00;;;;;;5038524;28;23054;-77
2022/01/07 04:28:26;;;;;;;13.45;8.57;;;-0.40;1.00;;;;;;5038148;28;20225;-79
2022/01/07 04:30:53;;;;;;;13.45;8.13;;;-0.40;1.00;;;;;;5022505;28;20226;-78
2022/01/07 04:33:26;;;;;;;11.07;8.88;;;-0.40;1.00;;;;;;5041548;28;20304;-79
2022/01/07 04:35:53;;;;;;;12.20;8.63;;;-0.30;1.00;;;;;;5040355;28;20339;-79
2022/01/07 04:38:22;;;;;;;14.05;8.50;;;-0.30;1.00;;;;;;5032362;28;20791;-78
2022/01/07 04:40:48;;;;;;;12.98;8.52;;;-0.30;1.00;;;;;;5037777;28;20313;-78
2022/01/07 04:43:15;;;;;;;10.82;8.35;;;-0.20;1.00;;;;;;5034867;28;20222;-78
2022/01/07 04:45:42;;;;;;;13.15;7.22;;;-0.20;1.00;;;;;;5032567;28;20626;-78
2022/01/07 04:48:09;;;;;;;11.32;8.40;;;-0.20;1.00;;;;;;5040839;28;21407;-78
2022/01/07 04:50:37;;;;;;;10.77;8.45;;;-0.20;1.00;;;;;;5038534;28;20231;-76
2022/01/07 04:53:05;;;;;;;8.32;7.30;;;-0.20;1.00;;;;;;5040421;28;20406;-78
2022/01/07 04:55:37;;;;;;;8.48;6.97;;;-0.20;1.00;;;;;;5037002;28;20380;-77
2022/01/07 04:58:05;;;;;;;11.02;7.70;;;-0.20;1.00;;;;;;5037618;28;20733;-78
2022/01/07 05:00:32;;;;;;;9.02;7.68;;;-0.20;1.00;;;;;;5046229;28;20227;-76
2022/01/07 05:02:59;;;;;;;15.68;7.03;;;-0.10;1.00;;;;;;5041990;28;20216;-79
2022/01/07 05:05:25;;;;;;;14.15;8.55;;;-0.10;1.00;;;;;;5040530;28;20300;-77
2022/01/07 05:07:52;;;;;;;11.80;7.18;;;-0.10;1.00;;;;;;5039803;28;20316;-79
2022/01/07 05:10:19;;;;;;;8.65;7.63;;;-0.10;1.00;;;;;;5038033;28;21072;-79
2022/01/07 05:12:47;;;;;;;12.13;6.90;;;-0.10;1.00;;;;;;5036080;28;20313;-79
2022/01/07 05:15:15;;;;;;;9.15;6.45;;;-0.10;1.00;;;;;;5034525;28;20238;-78
2022/01/07 05:17:42;;;;;;;16.75;7.13;;;-0.10;1.00;;;;;;5033651;28;20236;-78
2022/01/07 05:20:10;;;;;;;8.95;7.50;;;-0.10;1.00;;;;;;5035741;28;20274;-76
2022/01/07 05:22:37;;;;;;;11.25;7.40;;;-0.10;1.00;;;;;;5036549;28;21498;-77
2022/01/07 05:25:05;;;;;;;11.23;9.63;;;-0.10;1.00;;;;;;5036657;28;20305;-79
2022/01/07 05:27:32;;;;;;;12.60;7.90;;;-0.10;1.00;;;;;;5038935;28;20315;-78
2022/01/07 05:30:00;;;;;;;10.55;7.55;;;-0.10;1.00;;;;;;5035958;28;20228;-77
2022/01/07 05:32:27;;;;;;;12.18;7.50;;;-0.10;1.00;;;;;;5037903;28;20264;-79
2022/01/07 05:34:53;;;;;;;10.43;7.03;;;-0.20;1.00;;;;;;5036825;28;20225;-79
2022/01/07 05:37:20;;;;;;;11.63;6.90;;;-0.20;1.00;;;;;;5030761;28;20236;-79
2022/01/07 05:39:47;;;;;;;10.43;6.75;;;-0.10;1.00;;;;;;5028970;28;20221;-78
2022/01/07 05:42:13;;;;;;;12.27;6.85;;;-0.10;1.00;;;;;;5023326;28;20224;-77
2022/01/07 05:44:40;;;;;;;11.23;6.78;;;-0.20;1.00;;;;;;5038226;28;21094;-79
2022/01/07 05:47:08;;;;;;;10.95;5.93;;;-0.10;1.00;;;;;;5037370;28;21100;-80
2022/01/07 05:49:35;;;;;;;9.02;7.05;;;-0.10;1.00;;;;;;5035760;28;20228;-79
2022/01/07 05:52:01;;;;;;;10.13;6.95;;;-0.10;1.00;;;;;;5038477;28;20312;-78
2022/01/07 05:54:28;;;;;;;11.32;6.90;;;-0.10;1.00;;;;;;5040832;28;20234;-80
2022/01/07 05:56:57;;;;;;;9.13;5.70;;;-0.10;1.00;;;;;;5030135;28;20234;-79
2022/01/07 05:59:24;;;;;;;12.45;7.40;;;-0.10;1.00;;;;;;5035311;28;20284;-78
2022/01/07 06:01:50;;;;;;;10.40;6.55;;;-0.10;1.00;;;;;;5039519;28;20303;-79
2022/01/07 06:04:18;;;;;;;10.05;7.03;;;-0.10;1.00;;;;;;5040450;28;20297;-78
2022/01/07 06:06:45;;;;;;;8.90;6.38;;;-0.10;1.00;;;;;;5041488;28;20310;-80
2022/01/07 06:09:12;;;;;;;10.50;6.03;;;-0.10;1.00;;;;;;5037124;28;20286;-80
2022/01/07 06:11:38;;;;;;;7.50;6.00;;;-0.10;1.00;;;;;;5048152;28;20232;-79
2022/01/07 06:14:05;;;;;;;11.57;7.10;;;-0.20;1.00;;;;;;5058941;28;20236;-78
2022/01/07 06:16:32;;;;;;;12.30;6.25;;;-0.20;1.00;;;;;;5041723;28;20297;-78
2022/01/07 06:18:58;;;;;;;8.15;5.60;;;-0.10;1.00;;;;;;5039024;28;20329;-78
2022/01/07 06:21:27;;;;;;;14.07;5.82;;;-0.10;1.00;;;;;;5037333;28;20226;-80
2022/01/07 06:23:54;;;;;;;9.98;6.20;;;-0.10;1.00;;;;;;5037577;28;20214;-80
2022/01/07 06:26:21;;;;;;;10.30;5.97;;;-0.10;1.00;;;;;;5041583;28;21683;-79
2022/01/07 06:28:48;;;;;;;8.25;5.35;;;0.00;1.00;;;;;;5040837;28;20721;-78
2022/01/07 06:31:15;;;;;;;9.63;5.60;;;0.00;1.00;;;;;;5035862;28;20735;-79
2022/01/07 06:33:41;;;;;;;9.98;6.03;;;0.00;1.00;;;;;;5031832;28;21557;-79
2022/01/07 06:36:09;;;;;;;10.70;5.40;;;0.00;1.00;;;;;;5049828;28;20974;-76
2022/01/07 06:38:37;;;;;;;8.95;5.72;;;0.00;1.00;;;;;;5042764;28;20293;-76
2022/01/07 06:41:04;;;;;;;11.30;5.93;;;-0.10;1.00;;;;;;5055343;28;20223;-78
2022/01/07 06:43:31;;;;;;;11.18;6.10;;;-0.10;1.00;;;;;;5045334;28;20225;-76
2022/01/07 06:45:58;;;;;;;10.15;5.97;;;-0.10;1.00;;;;;;5053030;28;20285;-77
2022/01/07 06:48:24;;;;;;;12.68;6.25;;;-0.10;1.00;;;;;;5046064;28;20430;-77
2022/01/07 06:50:51;;;;;;;8.15;5.65;;;-0.10;1.00;;;;;;5044275;28;20341;-77
2022/01/07 06:53:19;;;;;;;8.23;5.40;;;0.00;1.00;;;;;;5045648;28;20962;-76
2022/01/07 06:55:47;;;;;;;14.18;6.22;;;0.00;1.00;;;;;;5044933;28;20232;-78
2022/01/07 06:58:13;;;;;;;7.63;5.35;;;0.00;1.00;;;;;;5042295;28;20719;-78
2022/01/07 07:00:40;;;;;;;8.25;5.82;;;0.00;1.00;;;;;;5039136;28;20226;-75
2022/01/07 07:03:07;;;;;;;14.90;6.00;;;0.00;1.00;;;;;;5040707;28;20225;-78
2022/01/07 07:05:35;;;;;;;7.70;5.43;;;0.10;1.00;;;;;;5040728;28;20231;-78
2022/01/07 07:08:02;;;;;;;11.43;5.80;;;0.10;1.00;;;;;;5050997;28;20245;-76
2022/01/07 07:10:29;;;;;;;13.40;6.45;;;0.10;1.00;;;;;;5062449;28;20221;-75
2022/01/07 07:12:57;;;;;;;6.80;5.20;;;0.20;1.00;;;;;;5061662;28;20222;-76
2022/01/07 07:15:23;;;;;;;9.88;5.80;;;0.30;1.00;;;;;;5055428;28;20252;-80
2022/01/07 07:17:50;;;;;;;13.07;6.20;;;0.20;1.00;;;;;;5043751;28;20227;-79
2022/01/07 07:20:18;;;;;;;11.70;6.18;;;0.30;1.00;;;;;;5037058;28;20274;-79
2022/01/07 07:22:45;;;;;;;7.72;5.72;;;0.30;1.00;;;;;;5020996;28;20281;-79
2022/01/07 07:25:12;;;;;;;11.57;7.35;;;0.30;1.00;;;;;;5040686;28;20300;-77
2022/01/07 07:27:39;;;;;;;8.85;5.13;;;0.30;1.00;;;;;;5041151;28;20271;-77
2022/01/07 07:30:10;;;;;;;10.63;6.35;;;0.30;1.00;;;;;;5037324;28;21226;-78
2022/01/07 07:32:38;;;;;;;9.13;6.25;;;0.30;1.00;;;;;;5031334;28;20237;-79
2022/01/07 07:36:26;;;;;;;9.95;5.85;;;0.30;1.00;;;;;;5039370;28;20225;-78
2022/01/07 07:38:02;;;;;;;9.90;6.38;;;0.40;1.00;;;;;;5034568;28;20230;-79
2022/01/07 07:40:29;;;;;;;6.95;4.90;;;0.40;1.00;;;;;;5023678;28;20812;-79
2022/01/07 07:42:56;;;;;;;7.38;5.57;;;0.40;1.00;;;;;;5035605;28;20226;-79
2022/01/07 07:45:24;;;;;;;7.65;4.88;;;0.60;1.00;;;;;;5027358;28;20285;-78
2022/01/07 07:47:51;;;;;;;9.13;5.32;;;0.60;1.00;;;;;;5029400;28;20214;-79
2022/01/07 07:50:18;;;;;;;13.15;6.05;;;0.60;1.00;;;;;;5033014;28;20222;-79
2022/01/07 07:52:46;;;;;;;7.20;5.20;;;0.60;1.00;;;;;;5028876;28;20724;-77
2022/01/07 07:55:13;;;;;;;11.63;6.25;;;0.60;1.00;;;;;;5031773;28;20229;-79
2022/01/07 07:57:40;;;;;;;7.65;5.00;;;0.60;1.00;;;;;;5017445;28;20246;-77
2022/01/07 08:00:07;;;;;;;10.02;5.50;;;0.70;1.00;;;;;;5017379;28;20221;-79
2022/01/07 08:02:36;;;;;;;9.82;6.07;;;0.70;1.00;;;;;;5033169;28;20232;-79
2022/01/07 08:05:03;;;;;;;8.63;6.30;;;0.70;1.00;;;;;;5038566;28;20222;-78
2022/01/07 08:07:30;;;;;;;7.97;5.63;;;0.80;1.00;;;;;;5039899;28;20817;-79
2022/01/07 08:09:57;;;;;;;10.35;6.22;;;0.80;1.00;;;;;;5018845;28;20225;-79
2022/01/07 08:12:29;;;;;;;7.50;5.47;;;0.90;1.00;;;;;;5038828;28;20359;-78
2022/01/07 08:17:42;;;;;;;11.25;5.82;;;1.00;1.00;;;;;;5047579;28;21046;-79
2022/01/07 08:20:09;;;;;;;9.98;5.90;;;1.00;1.00;;;;;;5042169;28;20226;-79
2022/01/07 08:22:36;;;;;;;9.80;5.13;;;1.10;1.00;;;;;;5031153;28;20222;-79
2022/01/07 08:25:07;;;;;;;9.90;5.07;;;1.10;1.00;;;;;;5036159;28;20293;-79
2022/01/07 08:27:34;;;;;;;10.07;5.55;;;1.00;1.00;;;;;;5051056;28;20273;-80
2022/01/07 08:30:10;;;;;;;10.32;5.80;;;1.10;1.00;;;;;;5043327;28;20221;-78
2022/01/07 08:35:22;;;;;;;11.68;5.35;;;1.20;1.00;;;;;;5040037;28;20273;-78
2022/01/07 08:37:49;;;;;;;10.73;5.40;;;1.20;1.00;;;;;;5042396;28;20230;-81
2022/01/07 08:40:17;;;;;;;11.43;5.70;;;1.20;1.00;;;;;;5040185;28;20222;-78
2022/01/07 08:42:44;;;;;;;9.95;4.95;;;1.30;1.00;;;;;;5048374;28;20220;-79
2022/01/07 08:45:11;;;;;;;10.68;5.82;;;1.30;1.00;;;;;;5044937;28;20230;-79
2022/01/07 08:47:38;;;;;;;11.25;5.45;;;1.40;1.00;;;;;;5046198;28;20248;-79
2022/01/07 08:50:06;;;;;;;12.48;5.57;;;1.40;1.00;;;;;;5054933;28;20210;-77
2022/01/07 08:52:34;;;;;;;7.93;4.80;;;1.50;1.00;;;;;;5043261;28;20221;-78
2022/01/07 08:55:01;;;;;;;8.05;5.68;;;1.50;1.00;;;;;;5039441;28;21118;-77
2022/01/07 08:57:28;;;;;;;8.70;5.25;;;1.50;1.00;;;;;;5049506;28;20279;-79
2022/01/07 08:59:55;;;;;;;7.70;5.18;;;1.50;1.00;;;;;;5044074;28;20226;-79
2022/01/07 09:02:22;;;;;;;10.27;5.05;;;1.60;1.00;;;;;;5048929;28;20223;-81
2022/01/07 09:04:48;;;;;;;6.47;4.65;;;1.60;1.00;;;;;;5033021;28;20233;-78
2022/01/07 09:07:16;;;;;;;7.10;4.85;;;1.80;1.00;;;;;;5029317;28;20237;-79
2022/01/07 09:09:45;;;;;;;7.95;4.70;;;1.80;1.00;;;;;;5039983;28;20232;-77
2022/01/07 09:12:12;;;;;;;6.72;4.30;;;1.80;1.00;;;;;;5045893;28;20305;-78
2022/01/07 09:14:39;;;;;;;9.60;5.25;;;1.90;1.00;;;;;;5035933;28;20222;-79
2022/01/07 09:17:06;;;;;;;7.18;4.75;;;2.00;1.00;;;;;;5030718;28;20249;-79
2022/01/07 09:19:34;;;;;;;12.50;6.07;;;2.10;1.00;;;;;;5042524;28;20902;-81
2022/01/07 09:22:01;;;;;;;10.55;5.40;;;2.00;1.00;;;;;;5039501;28;20217;-82
2022/01/07 09:24:29;;;;;;;9.65;5.97;;;2.20;1.00;;;;;;5042638;28;20940;-80
2022/01/07 09:26:58;;;;;;;8.13;4.13;;;2.30;1.00;;;;;;5020730;28;21532;-79
2022/01/07 09:29:27;;;;;;;10.52;5.82;;;2.30;1.00;;;;;;5023059;28;20232;-79
2022/01/07 09:31:54;;;;;;;12.40;6.07;;;2.40;1.00;;;;;;5042681;28;20236;-79
2022/01/07 09:34:21;;;;;;;8.35;5.30;;;2.50;1.00;;;;;;5044490;28;20231;-79
2022/01/07 09:36:48;;;;;;;9.15;5.45;;;2.60;1.00;;;;;;5045367;28;20240;-80
2022/01/07 09:39:15;;;;;;;7.05;5.10;;;2.60;1.00;;;;;;5046533;28;20222;-79
2022/01/07 09:41:42;;;;;;;6.80;5.68;;;2.60;1.00;;;;;;5040978;28;20285;-79
2022/01/07 09:44:11;;;;;;;9.15;5.55;;;2.60;1.00;;;;;;5043420;28;20218;-81
2022/01/07 09:46:40;;;;;;;11.73;5.53;;;2.70;1.00;;;;;;5042401;28;20240;-80
2022/01/07 09:49:07;;;;;;;10.98;5.55;;;2.70;1.00;;;;;;5049028;28;20222;-80
2022/01/07 09:51:37;;;;;;;15.77;5.88;;;2.70;1.00;;;;;;5045606;28;20233;-80
2022/01/07 09:54:04;;;;;;;9.70;5.22;;;2.80;1.00;;;;;;5044290;28;20225;-80
2022/01/07 09:56:31;;;;;;;8.48;5.88;;;2.80;1.00;;;;;;5055106;28;20219;-79
2022/01/07 09:58:58;;;;;;;15.43;6.18;;;2.90;1.00;;;;;;5037456;28;20231;-78
2022/01/07 10:01:27;;;;;;;6.57;5.40;;;3.00;1.00;;;;;;5041712;28;20230;-79
2022/01/07 10:03:53;;;;;;;10.77;6.45;;;3.10;1.00;;;;;;5043182;28;20285;-80
2022/01/07 10:06:22;;;;;;;10.80;6.00;;;3.40;1.00;;;;;;5038728;28;20244;-79
2022/01/07 10:09:05;;;;;;;10.95;5.93;;;3.80;1.00;;;;;;5045687;28;20226;-78
2022/01/07 10:11:35;;;;;;;10.80;5.63;;;4.20;1.00;;;;;;5039236;28;20353;-77
2022/01/07 10:14:16;;;;;;;8.07;5.50;;;4.00;1.00;;;;;;5035996;28;21102;-78
2022/01/07 10:16:50;;;;;;;9.43;6.75;;;3.90;1.00;;;;;;5060516;28;20709;-78
2022/01/07 10:19:34;;;;;;;9.10;6.30;;;3.80;1.00;;;;;;5044720;28;20234;-79
2022/01/07 10:22:05;;;;;;;11.20;6.10;;;3.80;1.00;;;;;;5053706;28;20386;-77
2022/01/07 10:24:32;;;;;;;12.65;5.30;;;3.80;1.00;;;;;;5041263;28;20617;-82
2022/01/07 10:27:10;;;;;;;9.18;5.78;;;4.10;1.00;;;;;;5035182;28;20332;-80
2022/01/07 10:29:41;;;;;;;9.13;5.10;;;4.60;1.00;;;;;;5039558;28;20253;-80
2022/01/07 10:32:25;;;;;;;14.80;6.50;;;4.90;1.00;;;;;;5033624;28;20566;-81
2022/01/07 10:35:03;;;;;;;9.18;4.85;;;5.00;1.00;;;;;;5035381;28;20229;-79
2022/01/07 10:37:30;;;;;;;8.25;4.22;;;5.10;1.00;;;;;;5035910;28;20283;-80
2022/01/07 10:39:57;;;;;;;6.07;4.75;;;5.00;1.00;;;;;;5041765;28;20289;-79
2022/01/07 10:42:24;;;;;;;9.60;5.55;;;4.70;1.00;;;;;;5034172;28;20284;-81
2022/01/07 10:44:59;;;;;;;9.90;5.20;;;4.60;1.00;;;;;;5025804;28;20226;-81
2022/01/07 10:47:28;;;;;;;8.15;5.72;;;4.40;1.00;;;;;;5033205;28;21200;-82
2022/01/07 10:50:13;;;;;;;8.45;5.40;;;4.40;1.00;;;;;;5018394;28;20276;-79
2022/01/07 10:52:40;;;;;;;8.30;5.93;;;4.40;1.00;;;;;;5038999;28;20248;-82
2022/01/07 10:55:12;;;;;;;6.80;5.32;;;4.40;1.00;;;;;;5035470;28;20233;-77
2022/01/07 10:57:41;;;;;;;9.68;5.55;;;4.20;1.00;;;;;;5037249;28;20696;-78
2022/01/07 11:00:10;;;;;;;8.05;5.15;;;4.10;1.00;;;;;;5038332;28;20238;-80
2022/01/07 11:02:39;;;;;;;9.05;5.38;;;4.20;1.00;;;;;;5039007;28;20218;-78
2022/01/07 11:05:07;;;;;;;7.72;5.60;;;4.30;1.00;;;;;;5040563;28;20221;-78
2022/01/07 11:07:34;;;;;;;9.15;5.53;;;4.20;1.00;;;;;;5044629;28;20232;-80
2022/01/07 11:10:01;;;;;;;9.75;5.97;;;4.20;1.00;;;;;;5037325;28;20329;-81
2022/01/07 11:12:30;;;;;;;10.38;5.78;;;4.10;1.00;;;;;;5041539;28;20305;-79
2022/01/07 11:14:58;;;;;;;8.45;5.75;;;4.20;1.00;;;;;;5039067;28;20257;-80
2022/01/07 11:17:26;;;;;;;9.35;5.97;;;4.10;1.00;;;;;;5038147;28;20757;-80
2022/01/07 11:19:57;;;;;;;6.55;4.95;;;4.10;1.00;;;;;;5041222;28;20238;-84
2022/01/07 11:22:24;;;;;;;8.18;5.32;;;4.10;1.00;;;;;;5037912;28;20905;-80
2022/01/07 11:25:04;;;;;;;10.70;5.80;;;4.00;1.00;;;;;;5059540;28;20213;-80
2022/01/07 11:27:31;;;;;;;9.48;5.47;;;4.00;1.00;;;;;;5024208;28;20266;-82
2022/01/07 11:30:15;;;;;;;13.43;6.03;;;4.10;1.00;;;;;;5023466;28;20229;-81
2022/01/07 11:32:44;;;;;;;10.15;6.03;;;4.10;1.00;;;;;;5040881;28;20229;-82
2022/01/07 11:35:49;;;;;;;12.88;6.13;;;4.00;1.00;;;;;;5019067;28;20288;-83
2022/01/07 11:38:41;;;;;;;10.02;5.97;;;4.00;1.00;;;;;;5040920;28;20230;-83
2022/01/07 11:41:44;;;;;;;10.30;5.47;;;4.00;1.00;;;;;;5019854;28;20226;-83
2022/01/07 11:44:13;;;;;;;11.00;6.65;;;4.00;1.00;;;;;;5028041;28;20999;-84
2022/01/07 11:46:41;;;;;;;10.38;6.15;;;3.90;1.00;;;;;;5038715;28;20257;-82
2022/01/07 11:49:32;;;;;;;9.02;5.40;;;4.00;1.00;;;;;;5041922;28;20232;-84
2022/01/07 11:52:24;;;;;;;11.05;6.13;;;4.00;1.00;;;;;;5023774;28;20238;-85
2022/01/07 11:55:26;;;;;;;12.10;6.57;;;4.00;1.00;;;;;;5045290;28;20321;-83
2022/01/07 11:57:57;;;;;;;9.35;5.50;;;4.00;1.00;;;;;;5028881;28;20319;-84
2022/01/07 12:00:49;;;;;;;9.23;5.57;;;3.90;1.00;;;;;;5033861;28;20260;-85
2022/01/07 12:03:37;;;;;;;11.45;6.43;;;3.90;1.00;;;;;;5023471;28;20265;-83
2022/01/07 12:06:34;;;;;;;8.25;5.75;;;3.90;1.00;;;;;;5022440;28;20222;-83
2022/01/07 12:09:19;;;;;;;9.93;6.20;;;3.70;1.00;;;;;;5030518;28;20292;-82
2022/01/07 12:11:57;;;;;;;12.75;7.22;;;3.60;1.00;;;;;;5027988;28;20307;-83
2022/01/07 12:14:26;;;;;;;9.25;6.47;;;3.60;1.00;;;;;;5035253;28;20323;-82
2022/01/07 12:16:55;;;;;;;9.00;6.55;;;3.70;1.00;;;;;;5036401;28;20444;-81
2022/01/07 12:19:54;;;;;;;12.70;7.68;;;3.70;1.00;;;;;;5039446;28;20253;-80
2022/01/07 12:22:22;;;;;;;7.95;5.70;;;3.70;1.00;;;;;;5004682;28;20333;-81
2022/01/07 12:24:58;;;;;;;10.43;6.95;;;3.70;1.00;;;;;;5034557;28;20215;-82
2022/01/07 12:27:26;;;;;;;9.18;5.88;;;3.70;1.00;;;;;;5037160;28;20479;-81
2022/01/07 12:29:54;;;;;;;9.82;5.97;;;3.60;1.00;;;;;;5051930;28;20749;-79
2022/01/07 12:32:28;;;;;;;9.65;6.75;;;3.60;1.00;;;;;;5031949;28;20399;-80
2022/01/07 12:34:55;;;;;;;10.05;6.50;;;3.60;1.00;;;;;;5025385;28;20339;-81
2022/01/07 12:37:24;;;;;;;9.35;5.93;;;3.60;1.00;;;;;;5033805;28;20229;-80
2022/01/07 12:39:54;;;;;;;13.43;7.90;;;3.60;1.00;;;;;;5025245;28;20287;-81
2022/01/07 12:42:21;;;;;;;9.18;5.75;;;3.60;1.00;;;;;;5046956;28;20228;-83
2022/01/07 12:44:52;;;;;;;10.25;6.70;;;3.70;1.00;;;;;;5033946;28;20218;-80
2022/01/07 12:47:20;;;;;;;13.50;7.32;;;3.70;1.00;;;;;;5035742;28;20241;-80
2022/01/07 12:49:48;;;;;;;10.40;6.95;;;3.60;1.00;;;;;;5039040;28;20256;-81
2022/01/07 12:52:19;;;;;;;11.70;7.30;;;3.60;1.00;;;;;;5035649;28;20278;-82
2022/01/07 12:54:57;;;;;;;10.68;6.43;;;3.70;1.00;;;;;;5034601;28;20213;-80
2022/01/07 12:57:26;;;;;;;13.20;6.80;;;3.60;1.00;;;;;;5036570;28;20650;-80
2022/01/07 13:00:07;;;;;;;11.73;7.10;;;3.60;1.00;;;;;;5040599;28;20592;-79
2022/01/07 13:02:34;;;;;;;10.43;6.72;;;3.70;1.00;;;;;;5055608;28;20233;-81
2022/01/07 13:05:14;;;;;;;11.05;7.20;;;3.80;1.00;;;;;;5046895;28;20222;-78
2022/01/07 13:07:42;;;;;;;11.10;7.45;;;3.80;1.00;;;;;;5056769;28;20225;-78
2022/01/07 13:10:11;;;;;;;9.23;6.20;;;3.70;1.00;;;;;;5028968;28;20252;-78